PWSweather.com
Personal Weather Stations
Station Observations
ISANTACA4
Capoeiras Weather Station, Florianopolis, SC 88070450

Capoeiras Weather StationFlorianopolis, SC 88070450

Lat: -27.596, Lon: -48.588

Elevation: 133

Station Type: Oregon WMR 928NX

Latest ConditionsUpdated 7:15:00 PM GMT-03:57 Wednesday, Oct 1, 2014
Currently Today's Max Today's Min Today's Average
Temperature 67.6°F19.8°C 79.2°F26.2°C 67.6°F19.8°C 71.4°F21.9°C
Dew Point 60.2°F15.7°C 71.3°F21.8°C 60.2°F15.7°C 66.6°F19.2°C
Winds 11.0 mph S17.7 kmh S 15.0 mph S24.1 kmh S - 6.6 mph 10.6 kmh
Wind Gusts 30.0 mph48.3 kmh 36.0 mph57.9 kmh - -
Humidity 77% 95% 69% 85%
Pressure 30.13 in1020.3 mb 30.13 in1020.3 mb 29.73 in1006.8 mb -
Precipitation - 0.72 in18.3 mm - -
Hour Temp Dew Point Humidity Winds Wind Gusts Pressure Precip Precip Rate Daily Precip Total
07:15 PM 67.6°F19.8°C 60.2°F15.7°C 77% 11.0 mph S17.7 kmh S 30.0 mph48.3 kmh 30.13 in1020.3 mb 0.00 in0.0 mm 0.00 in/hr0.0 mm/hr 0.72 in18.3 mm
07:00 PM 67.8°F19.9°C 61.1°F16.2°C 79% 11.0 mph SSW17.7 kmh SSW 25.0 mph40.2 kmh 30.12 in1020.0 mb 0.00 in0.0 mm 0.00 in/hr0.0 mm/hr 0.72 in18.3 mm
06:45 PM 68.2°F20.1°C 61.8°F16.6°C 80% 11.0 mph S17.7 kmh S 22.0 mph35.4 kmh 30.11 in1019.6 mb 0.00 in0.0 mm 0.00 in/hr0.0 mm/hr 0.72 in18.3 mm
06:30 PM 68.4°F20.2°C 62.3°F16.8°C 81% 12.0 mph S19.3 kmh S 36.0 mph57.9 kmh 30.11 in1019.6 mb 0.00 in0.0 mm 0.00 in/hr0.0 mm/hr 0.72 in18.3 mm
06:15 PM 68.4°F20.2°C 62.3°F16.8°C 81% 10.0 mph S16.1 kmh S 26.0 mph41.8 kmh 30.09 in1019.0 mb 0.00 in0.0 mm 0.00 in/hr0.0 mm/hr 0.72 in18.3 mm
06:00 PM 68.7°F20.4°C 62.7°F17.1°C 81% 9.0 mph S14.5 kmh S 22.0 mph35.4 kmh 30.09 in1019.0 mb 0.00 in0.0 mm 0.00 in/hr0.0 mm/hr 0.72 in18.3 mm
05:45 PM 69.3°F20.7°C 63.5°F17.5°C 82% 9.0 mph S14.5 kmh S 28.0 mph45.1 kmh 30.09 in1019.0 mb 0.00 in0.0 mm 0.00 in/hr0.0 mm/hr 0.72 in18.3 mm
05:30 PM 69.8°F21.0°C 63.7°F17.6°C 81% 11.0 mph S17.7 kmh S 20.0 mph32.2 kmh 30.08 in1018.6 mb 0.00 in0.0 mm 0.00 in/hr0.0 mm/hr 0.72 in18.3 mm
05:15 PM 70.2°F21.2°C 63.3°F17.4°C 79% 11.0 mph S17.7 kmh S 27.0 mph43.5 kmh 30.07 in1018.3 mb 0.00 in0.0 mm 0.00 in/hr0.0 mm/hr 0.72 in18.3 mm
05:00 PM 70.7°F21.5°C 63.9°F17.7°C 79% 14.0 mph S22.5 kmh S 30.0 mph48.3 kmh 30.06 in1017.9 mb 0.00 in0.0 mm 0.00 in/hr0.0 mm/hr 0.72 in18.3 mm
04:45 PM 71.6°F22.0°C 63.6°F17.6°C 76% 14.0 mph S22.5 kmh S 29.0 mph46.7 kmh 30.05 in1017.6 mb 0.00 in0.0 mm 0.00 in/hr0.0 mm/hr 0.72 in18.3 mm
04:30 PM 72.3°F22.4°C 63.9°F17.7°C 75% 12.0 mph SSW19.3 kmh SSW 29.0 mph46.7 kmh 30.05 in1017.6 mb 0.00 in0.0 mm 0.00 in/hr0.0 mm/hr 0.72 in18.3 mm
04:15 PM 72.7°F22.6°C 64.7°F18.2°C 76% 10.0 mph SSW16.1 kmh SSW 23.0 mph37.0 kmh 30.04 in1017.3 mb 0.00 in0.0 mm 0.00 in/hr0.0 mm/hr 0.72 in18.3 mm
04:00 PM 72.5°F22.5°C 64.1°F17.8°C 75% 8.0 mph S12.9 kmh S 25.0 mph40.2 kmh 30.05 in1017.6 mb 0.00 in0.0 mm 0.00 in/hr0.0 mm/hr 0.72 in18.3 mm
03:45 PM 73.4°F23.0°C 64.2°F17.9°C 73% 10.0 mph S16.1 kmh S 19.0 mph30.6 kmh 30.04 in1017.3 mb 0.00 in0.0 mm 0.00 in/hr0.0 mm/hr 0.72 in18.3 mm
03:30 PM 73.8°F23.2°C 64.2°F17.9°C 72% 12.0 mph S19.3 kmh S 27.0 mph43.5 kmh 30.04 in1017.3 mb 0.00 in0.0 mm 0.00 in/hr0.0 mm/hr 0.72 in18.3 mm
03:15 PM 74.8°F23.8°C 65.2°F18.4°C 72% 13.0 mph SSW20.9 kmh SSW 27.0 mph43.5 kmh 30.02 in1016.6 mb 0.00 in0.0 mm 0.00 in/hr0.0 mm/hr 0.72 in18.3 mm
03:00 PM 76.3°F24.6°C 65.4°F18.6°C 69% 11.0 mph SSW17.7 kmh SSW 24.0 mph38.6 kmh 30.02 in1016.6 mb 0.00 in0.0 mm 0.00 in/hr0.0 mm/hr 0.72 in18.3 mm
02:45 PM 76.6°F24.8°C 66.1°F18.9°C 70% 11.0 mph SSW17.7 kmh SSW 22.0 mph35.4 kmh 30.01 in1016.3 mb 0.00 in0.0 mm 0.00 in/hr0.0 mm/hr 0.72 in18.3 mm
02:30 PM 75.9°F24.4°C 66.6°F19.2°C 73% 11.0 mph SSW17.7 kmh SSW 22.0 mph35.4 kmh 30.01 in1016.3 mb 0.00 in0.0 mm 0.00 in/hr0.0 mm/hr 0.72 in18.3 mm
02:15 PM 75.4°F24.1°C 66.9°F19.4°C 75% 14.0 mph SW22.5 kmh SW 28.0 mph45.1 kmh 29.99 in1015.6 mb 0.00 in0.0 mm 0.00 in/hr0.0 mm/hr 0.72 in18.3 mm
02:00 PM 74.7°F23.7°C 67.3°F19.6°C 78% 14.0 mph SW22.5 kmh SW 32.0 mph51.5 kmh 29.98 in1015.2 mb 0.00 in0.0 mm 0.00 in/hr0.0 mm/hr 0.72 in18.3 mm
01:45 PM 74.3°F23.5°C 67.0°F19.4°C 78% 14.0 mph SSW22.5 kmh SSW 29.0 mph46.7 kmh 29.98 in1015.2 mb 0.00 in0.0 mm 0.00 in/hr0.0 mm/hr 0.72 in18.3 mm
01:30 PM 74.7°F23.7°C 67.7°F19.8°C 79% 14.0 mph SSW22.5 kmh SSW 28.0 mph45.1 kmh 29.97 in1014.9 mb 0.00 in0.0 mm 0.00 in/hr0.0 mm/hr 0.72 in18.3 mm
01:15 PM 74.1°F23.4°C 67.6°F19.8°C 80% 14.0 mph S22.5 kmh S 27.0 mph43.5 kmh 29.96 in1014.6 mb 0.00 in0.0 mm 0.00 in/hr0.0 mm/hr 0.72 in18.3 mm
01:00 PM 73.9°F23.3°C 67.4°F19.7°C 80% 15.0 mph S24.1 kmh S 35.0 mph56.3 kmh 29.96 in1014.6 mb 0.00 in0.0 mm 0.00 in/hr0.0 mm/hr 0.72 in18.3 mm
12:45 PM 75.7°F24.3°C 68.4°F20.2°C 78% 11.0 mph S17.7 kmh S 26.0 mph41.8 kmh 29.96 in1014.6 mb 0.00 in0.0 mm 0.00 in/hr0.0 mm/hr 0.72 in18.3 mm
12:30 PM 78.1°F25.6°C 69.9°F21.1°C 76% 8.0 mph S12.9 kmh S 21.0 mph33.8 kmh 29.95 in1014.2 mb 0.00 in0.0 mm 0.00 in/hr0.0 mm/hr 0.72 in18.3 mm
12:15 PM 78.4°F25.8°C 70.6°F21.4°C 77% 8.0 mph S12.9 kmh S 21.0 mph33.8 kmh 29.95 in1014.2 mb 0.00 in0.0 mm 0.00 in/hr0.0 mm/hr 0.72 in18.3 mm
12:00 PM 78.6°F25.9°C 71.2°F21.8°C 78% 8.0 mph S12.9 kmh S 19.0 mph30.6 kmh 29.95 in1014.2 mb 0.00 in0.0 mm 0.00 in/hr0.0 mm/hr 0.72 in18.3 mm
11:45 AM 79.2°F26.2°C 71.3°F21.8°C 77% 5.0 mph S8.0 kmh S 16.0 mph25.7 kmh 29.95 in1014.2 mb 0.00 in0.0 mm 0.00 in/hr0.0 mm/hr 0.72 in18.3 mm
11:30 AM 77.9°F25.5°C 70.9°F21.6°C 79% 5.0 mph S8.0 kmh S 15.0 mph24.1 kmh 29.95 in1014.2 mb 0.00 in0.0 mm 0.00 in/hr0.0 mm/hr 0.72 in18.3 mm
11:15 AM 76.5°F24.7°C 70.6°F21.4°C 82% 5.0 mph SE8.0 kmh SE 10.0 mph16.1 kmh 29.95 in1014.2 mb 0.00 in0.0 mm 0.00 in/hr0.0 mm/hr 0.72 in18.3 mm
11:00 AM 76.6°F24.8°C 70.0°F21.1°C 80% 6.0 mph SE9.7 kmh SE 11.0 mph17.7 kmh 29.95 in1014.2 mb 0.00 in0.0 mm 0.00 in/hr0.0 mm/hr 0.72 in18.3 mm
10:45 AM 78.4°F25.8°C 69.9°F21.1°C 75% 5.0 mph S8.0 kmh S 15.0 mph24.1 kmh 29.95 in1014.2 mb 0.00 in0.0 mm 0.00 in/hr0.0 mm/hr 0.72 in18.3 mm
10:30 AM 77.5°F25.3°C 70.1°F21.2°C 78% 6.0 mph SSW9.7 kmh SSW 10.0 mph16.1 kmh 29.94 in1013.9 mb 0.00 in0.0 mm 0.00 in/hr0.0 mm/hr 0.72 in18.3 mm
10:15 AM 77.2°F25.1°C 69.4°F20.8°C 77% 6.0 mph SW9.7 kmh SW 14.0 mph22.5 kmh 29.94 in1013.9 mb 0.00 in0.0 mm 0.00 in/hr0.0 mm/hr 0.72 in18.3 mm
10:00 AM 77.0°F25.0°C 70.0°F21.1°C 79% 5.0 mph SW8.0 kmh SW 13.0 mph20.9 kmh 29.93 in1013.5 mb 0.00 in0.0 mm 0.00 in/hr0.0 mm/hr 0.72 in18.3 mm
09:45 AM 76.5°F24.7°C 70.2°F21.2°C 81% 3.0 mph SSW4.8 kmh SSW 11.0 mph17.7 kmh 29.93 in1013.5 mb 0.00 in0.0 mm 0.00 in/hr0.0 mm/hr 0.72 in18.3 mm
09:30 AM 75.7°F24.3°C 70.6°F21.4°C 84% 3.0 mph SSW4.8 kmh SSW 9.0 mph14.5 kmh 29.93 in1013.5 mb 0.00 in0.0 mm 0.00 in/hr0.0 mm/hr 0.72 in18.3 mm
09:15 AM 74.5°F23.6°C 70.4°F21.3°C 87% 2.0 mph SSW3.2 kmh SSW 6.0 mph9.7 kmh 29.93 in1013.5 mb 0.00 in0.0 mm 0.00 in/hr0.0 mm/hr 0.72 in18.3 mm
09:00 AM 72.9°F22.7°C 69.8°F21.0°C 90% 2.0 mph SW3.2 kmh SW 9.0 mph14.5 kmh 29.93 in1013.5 mb 0.00 in0.0 mm 0.00 in/hr0.0 mm/hr 0.72 in18.3 mm
08:45 AM 71.4°F21.9°C 69.0°F20.6°C 92% 3.0 mph W4.8 kmh W 8.0 mph12.9 kmh 29.93 in1013.5 mb 0.00 in0.0 mm 0.00 in/hr0.0 mm/hr 0.72 in18.3 mm
08:30 AM 70.5°F21.4°C 68.1°F20.1°C 92% 1.0 mph NNE1.6 kmh NNE 5.0 mph8.0 kmh 29.93 in1013.5 mb 0.00 in0.0 mm 0.00 in/hr0.0 mm/hr 0.72 in18.3 mm
08:15 AM 69.6°F20.9°C 67.8°F19.9°C 94% 1.0 mph NNE1.6 kmh NNE 4.0 mph6.4 kmh 29.91 in1012.9 mb 0.00 in0.0 mm 0.00 in/hr0.0 mm/hr 0.72 in18.3 mm
08:00 AM 69.6°F20.9°C 67.8°F19.9°C 94% 1.0 mph NNE1.6 kmh NNE 3.0 mph4.8 kmh 29.91 in1012.9 mb 0.00 in0.0 mm 0.00 in/hr0.0 mm/hr 0.72 in18.3 mm
07:45 AM 69.1°F20.6°C 67.3°F19.6°C 94% 1.0 mph NNE1.6 kmh NNE 3.0 mph4.8 kmh 29.90 in1012.5 mb 0.00 in0.0 mm 0.00 in/hr0.0 mm/hr 0.72 in18.3 mm
07:30 AM 69.1°F20.6°C 67.6°F19.8°C 95% 1.0 mph NNE1.6 kmh NNE 3.0 mph4.8 kmh 29.89 in1012.2 mb 0.00 in0.0 mm 0.00 in/hr0.0 mm/hr 0.72 in18.3 mm
07:00 AM 68.0°F20.0°C 66.5°F19.2°C 95% 5.0 mph NE8.0 kmh NE 10.0 mph16.1 kmh 29.88 in1011.9 mb 0.00 in0.0 mm 0.00 in/hr0.0 mm/hr 0.72 in18.3 mm
06:45 AM 67.8°F19.9°C 66.3°F19.1°C 95% 5.0 mph NE8.0 kmh NE 9.0 mph14.5 kmh 29.87 in1011.5 mb 0.00 in0.0 mm 0.00 in/hr0.0 mm/hr 0.72 in18.3 mm
06:30 AM 67.6°F19.8°C 66.2°F19.0°C 95% 3.0 mph NNE4.8 kmh NNE 8.0 mph12.9 kmh 29.87 in1011.5 mb 0.00 in0.0 mm 0.00 in/hr0.0 mm/hr 0.72 in18.3 mm
06:15 AM 67.6°F19.8°C 66.2°F19.0°C 95% 4.0 mph N6.4 kmh N 11.0 mph17.7 kmh 29.87 in1011.5 mb 0.00 in0.0 mm 0.00 in/hr0.0 mm/hr 0.72 in18.3 mm
06:00 AM 67.6°F19.8°C 66.2°F19.0°C 95% 4.0 mph N6.4 kmh N 9.0 mph14.5 kmh 29.86 in1011.2 mb 0.00 in0.0 mm 0.00 in/hr0.0 mm/hr 0.72 in18.3 mm
05:45 AM 67.6°F19.8°C 66.2°F19.0°C 95% 3.0 mph N4.8 kmh N 7.0 mph11.3 kmh 29.87 in1011.5 mb 0.00 in0.0 mm 0.00 in/hr0.0 mm/hr 0.72 in18.3 mm
05:30 AM 67.6°F19.8°C 66.2°F19.0°C 95% 3.0 mph N4.8 kmh N 8.0 mph12.9 kmh 29.86 in1011.2 mb 0.00 in0.0 mm 0.00 in/hr0.0 mm/hr 0.72 in18.3 mm
05:15 AM 67.6°F19.8°C 66.2°F19.0°C 95% 3.0 mph NNW4.8 kmh NNW 8.0 mph12.9 kmh 29.84 in1010.5 mb 0.00 in0.0 mm 0.00 in/hr0.0 mm/hr 0.72 in18.3 mm
05:00 AM 67.6°F19.8°C 66.2°F19.0°C 95% Calm Calm 4.0 mph6.4 kmh 29.84 in1010.5 mb 0.00 in0.0 mm 0.00 in/hr0.0 mm/hr 0.72 in18.3 mm
04:45 AM 67.8°F19.9°C 66.3°F19.1°C 95% 1.0 mph WNW1.6 kmh WNW 5.0 mph8.0 kmh 29.84 in1010.5 mb 0.00 in0.0 mm 0.00 in/hr0.0 mm/hr 0.72 in18.3 mm
04:30 AM 67.8°F19.9°C 66.3°F19.1°C 95% 5.0 mph W8.0 kmh W 9.0 mph14.5 kmh 29.82 in1009.8 mb 0.00 in0.0 mm 0.00 in/hr0.0 mm/hr 0.72 in18.3 mm
04:15 AM 68.2°F20.1°C 66.7°F19.3°C 95% 5.0 mph WNW8.0 kmh WNW 9.0 mph14.5 kmh 29.83 in1010.2 mb 0.00 in0.0 mm 0.00 in/hr0.0 mm/hr 0.72 in18.3 mm
04:00 AM 68.2°F20.1°C 66.7°F19.3°C 95% 7.0 mph NW11.3 kmh NW 17.0 mph27.4 kmh 29.83 in1010.2 mb 0.01 in0.3 mm 0.00 in/hr0.0 mm/hr 0.72 in18.3 mm
03:45 AM 68.2°F20.1°C 66.7°F19.3°C 95% 7.0 mph N11.3 kmh N 16.0 mph25.7 kmh 29.80 in1009.1 mb 0.02 in0.5 mm 0.00 in/hr0.0 mm/hr 0.72 in18.3 mm
03:30 AM 67.8°F19.9°C 66.3°F19.1°C 95% 10.0 mph ENE16.1 kmh ENE 22.0 mph35.4 kmh 29.74 in1007.1 mb 0.05 in1.3 mm 0.00 in/hr0.0 mm/hr 0.72 in18.3 mm
03:15 AM 67.8°F19.9°C 66.3°F19.1°C 95% 9.0 mph ENE14.5 kmh ENE 16.0 mph25.7 kmh 29.73 in1006.8 mb 0.09 in2.3 mm 0.00 in/hr0.0 mm/hr 0.72 in18.3 mm
03:00 AM 67.8°F19.9°C 66.3°F19.1°C 95% 4.0 mph NNE6.4 kmh NNE 13.0 mph20.9 kmh 29.84 in1010.5 mb 0.16 in4.1 mm 0.00 in/hr0.0 mm/hr 0.72 in18.3 mm
02:45 AM 67.8°F19.9°C 66.3°F19.1°C 95% 1.0 mph W1.6 kmh W 4.0 mph6.4 kmh 29.88 in1011.9 mb 0.20 in5.1 mm 0.00 in/hr0.0 mm/hr 0.70 in17.8 mm
02:30 AM 67.8°F19.9°C 66.3°F19.1°C 95% Calm Calm 3.0 mph4.8 kmh 29.91 in1012.9 mb 0.31 in7.9 mm 0.00 in/hr0.0 mm/hr 0.67 in17.0 mm
02:15 AM 67.8°F19.9°C 66.0°F18.9°C 94% 3.0 mph W4.8 kmh W 5.0 mph8.0 kmh 29.91 in1012.9 mb 0.52 in13.2 mm 0.08 in/hr2.0 mm/hr 0.62 in15.7 mm
02:00 AM 68.0°F20.0°C 66.2°F19.0°C 94% 2.0 mph W3.2 kmh W 4.0 mph6.4 kmh 29.96 in1014.6 mb 0.50 in12.7 mm 0.00 in/hr0.0 mm/hr 0.56 in14.2 mm
01:45 AM 68.0°F20.0°C 66.2°F19.0°C 94% 3.0 mph W4.8 kmh W 8.0 mph12.9 kmh 29.96 in1014.6 mb 0.50 in12.7 mm 0.64 in/hr16.3 mm/hr 0.50 in12.7 mm
01:30 AM 68.2°F20.1°C 66.4°F19.1°C 94% 5.0 mph WSW8.0 kmh WSW 11.0 mph17.7 kmh 29.93 in1013.5 mb 0.34 in8.6 mm 0.96 in/hr24.4 mm/hr 0.34 in8.6 mm
01:15 AM 68.4°F20.2°C 66.6°F19.2°C 94% 4.0 mph SW6.4 kmh SW 9.0 mph14.5 kmh 29.92 in1013.2 mb 0.10 in2.5 mm 0.16 in/hr4.1 mm/hr 0.10 in2.5 mm
01:00 AM 68.4°F20.2°C 66.6°F19.2°C 94% 1.0 mph S1.6 kmh S 5.0 mph8.0 kmh 29.90 in1012.5 mb 0.06 in1.5 mm 0.08 in/hr2.0 mm/hr 0.06 in1.5 mm
12:45 AM 68.4°F20.2°C 66.3°F19.1°C 93% 1.0 mph S1.6 kmh S 2.0 mph3.2 kmh 29.89 in1012.2 mb 0.00 in0.0 mm 0.00 in/hr0.0 mm/hr 0.00 in0.0 mm
12:30 AM 68.4°F20.2°C 66.3°F19.1°C 93% 2.0 mph S3.2 kmh S 5.0 mph8.0 kmh 29.89 in1012.2 mb 0.00 in0.0 mm 0.00 in/hr0.0 mm/hr 0.00 in0.0 mm
12:15 AM 68.5°F20.3°C 66.7°F19.3°C 94% 1.0 mph NNW1.6 kmh NNW 6.0 mph9.7 kmh 29.91 in1012.9 mb 0.00 in0.0 mm 0.00 in/hr0.0 mm/hr 0.00 in0.0 mm
12:00 AM 68.4°F20.2°C 66.6°F19.2°C 94% 3.0 mph N4.8 kmh N 6.0 mph9.7 kmh 29.91 in1012.9 mb 0.00 in0.0 mm 0.00 in/hr0.0 mm/hr 0.00 in0.0 mm